Time;durP1;ratioP1;P1;durP2;ratioP2;P2;SDS_P1;SDS_P2;PMS_P1;PMS_P2;Temp;Humidity;BMP_temperature;BMP_pressure;BME280_temperature;BME280_humidity;BME280_pressure;Samples;Min_cycle;Max_cycle;Signal;HPM_P1;HPM_P2
2024/01/28 00:02:23;;;;;;;14.77;9.25;;;5.40;99.90;;;;;;5051092;28;20274;-68
2024/01/28 00:04:49;;;;;;;14.30;9.57;;;5.40;99.90;;;;;;5051832;28;20635;-68
2024/01/28 00:07:15;;;;;;;11.20;9.30;;;5.40;99.90;;;;;;5051001;28;20167;-68
2024/01/28 00:09:42;;;;;;;12.87;9.83;;;5.40;99.90;;;;;;5033840;28;20182;-69
2024/01/28 00:12:08;;;;;;;14.65;9.90;;;5.40;99.90;;;;;;5031861;28;20182;-67
2024/01/28 00:14:33;;;;;;;12.27;10.10;;;5.40;99.90;;;;;;5050839;28;20256;-68
2024/01/28 00:16:59;;;;;;;12.50;9.23;;;5.40;99.90;;;;;;5053484;28;20179;-71
2024/01/28 00:19:25;;;;;;;11.27;9.10;;;5.40;99.90;;;;;;5036106;28;20194;-71
2024/01/28 00:21:51;;;;;;;11.03;9.00;;;5.40;99.90;;;;;;5055238;28;20447;-71
2024/01/28 00:24:20;;;;;;;9.67;7.40;;;5.40;99.90;;;;;;5054168;28;20197;-72
2024/01/28 00:26:46;;;;;;;10.15;7.03;;;5.50;99.90;;;;;;5054502;28;20253;-72
2024/01/28 00:29:12;;;;;;;10.63;7.10;;;5.40;99.90;;;;;;5036652;28;20270;-72
2024/01/28 00:31:38;;;;;;;6.43;4.70;;;5.50;99.90;;;;;;5055004;28;20895;-72
2024/01/28 00:34:03;;;;;;;7.50;5.47;;;5.50;99.90;;;;;;5054894;28;20224;-64
2024/01/28 00:36:29;;;;;;;14.10;8.70;;;5.60;99.90;;;;;;5054159;28;20269;-72
2024/01/28 00:38:55;;;;;;;13.27;6.40;;;5.70;99.90;;;;;;5052802;28;20634;-73
2024/01/28 00:41:29;;;;;;;9.40;5.33;;;5.80;99.90;;;;;;5054133;28;20209;-73
2024/01/28 00:43:56;;;;;;;7.03;5.17;;;5.80;99.90;;;;;;5054951;28;20493;-72
2024/01/28 00:46:22;;;;;;;7.10;5.20;;;5.80;99.90;;;;;;5053727;28;20736;-72
2024/01/28 00:48:48;;;;;;;9.60;5.80;;;5.70;99.90;;;;;;5036663;28;20410;-72
2024/01/28 00:51:15;;;;;;;12.67;5.43;;;5.90;99.90;;;;;;5053993;28;20252;-73
2024/01/28 00:53:41;;;;;;;8.33;5.53;;;5.90;99.90;;;;;;5054332;28;20422;-72
2024/01/28 00:56:07;;;;;;;5.63;4.67;;;6.00;99.90;;;;;;5036063;28;20401;-61
2024/01/28 00:58:34;;;;;;;5.87;5.27;;;6.00;99.90;;;;;;5054130;28;20511;-73
2024/01/28 01:00:59;;;;;;;7.07;5.17;;;6.00;99.90;;;;;;5053558;28;20406;-72
2024/01/28 01:03:25;;;;;;;11.50;5.17;;;5.90;99.90;;;;;;5053215;28;20384;-72
2024/01/28 01:05:51;;;;;;;5.20;4.60;;;5.90;99.90;;;;;;5053854;28;20516;-72
2024/01/28 01:08:17;;;;;;;8.93;5.03;;;6.00;99.90;;;;;;5052338;28;20186;-72
2024/01/28 01:10:43;;;;;;;5.40;4.57;;;5.90;99.90;;;;;;5054086;28;20394;-72
2024/01/28 01:13:09;;;;;;;5.87;5.23;;;5.90;99.90;;;;;;5053214;28;20432;-64
2024/01/28 01:15:35;;;;;;;7.57;6.77;;;5.90;99.90;;;;;;5019204;28;20674;-72
2024/01/28 01:18:01;;;;;;;9.10;5.63;;;5.90;99.90;;;;;;5053696;28;20658;-72
2024/01/28 01:20:26;;;;;;;7.10;5.80;;;6.00;99.90;;;;;;5053077;28;20623;-72
2024/01/28 01:22:54;;;;;;;8.00;6.10;;;6.00;99.90;;;;;;5053648;28;20198;-68
2024/01/28 01:25:20;;;;;;;10.17;5.33;;;6.10;99.90;;;;;;5052440;28;20261;-73
2024/01/28 01:27:48;;;;;;;5.83;5.23;;;6.10;99.90;;;;;;5052528;28;20485;-73
2024/01/28 01:30:15;;;;;;;13.03;4.83;;;6.10;99.90;;;;;;5052426;28;20409;-72
2024/01/28 01:32:41;;;;;;;5.30;4.80;;;6.10;99.90;;;;;;5053498;28;20392;-72
2024/01/28 01:35:14;;;;;;;6.93;4.67;;;6.10;99.90;;;;;;5035810;28;20421;-72
2024/01/28 01:37:40;;;;;;;5.53;5.03;;;6.10;99.90;;;;;;5053135;28;20425;-73
2024/01/28 01:40:07;;;;;;;5.67;4.37;;;6.10;99.90;;;;;;5035471;28;20457;-72
2024/01/28 01:42:33;;;;;;;6.70;4.97;;;6.10;99.90;;;;;;5052445;28;20409;-72
2024/01/28 01:44:59;;;;;;;6.47;4.90;;;6.10;99.90;;;;;;5052970;28;20418;-72
2024/01/28 01:47:26;;;;;;;5.00;4.50;;;6.10;99.90;;;;;;5052312;28;20500;-72
2024/01/28 01:49:52;;;;;;;6.13;4.47;;;6.20;99.90;;;;;;5052689;28;20172;-72
2024/01/28 01:52:20;;;;;;;5.93;4.37;;;6.10;99.90;;;;;;5052205;28;20727;-71
2024/01/28 01:54:47;;;;;;;6.83;4.30;;;6.00;99.90;;;;;;5053279;28;20408;-72
2024/01/28 01:57:14;;;;;;;4.67;4.13;;;6.00;99.90;;;;;;5052235;28;20397;-67
2024/01/28 01:59:41;;;;;;;5.53;4.43;;;6.00;99.90;;;;;;5052947;28;20452;-72
2024/01/28 02:02:09;;;;;;;5.23;4.10;;;6.00;99.90;;;;;;5053071;28;20195;-72
2024/01/28 02:04:36;;;;;;;4.70;4.13;;;6.00;99.90;;;;;;5052461;28;20393;-72
2024/01/28 02:07:02;;;;;;;5.82;3.70;;;5.90;99.90;;;;;;5051686;28;20409;-70
2024/01/28 02:09:28;;;;;;;3.97;3.60;;;5.90;99.90;;;;;;5049899;28;20205;-72
2024/01/28 02:11:54;;;;;;;5.43;3.78;;;5.70;99.20;;;;;;5018533;28;20408;-71
2024/01/28 02:14:24;;;;;;;6.70;3.63;;;5.60;99.20;;;;;;5051595;28;20217;-71
2024/01/28 02:16:50;;;;;;;4.53;3.20;;;5.70;98.80;;;;;;5034875;28;20896;-72
2024/01/28 02:19:17;;;;;;;3.83;3.40;;;5.70;99.10;;;;;;5052012;28;20440;-72
2024/01/28 02:21:43;;;;;;;7.43;3.70;;;5.80;98.80;;;;;;5052491;28;20380;-72
2024/01/28 02:24:09;;;;;;;8.00;4.30;;;5.90;98.60;;;;;;5052345;28;20892;-72
2024/01/28 02:26:35;;;;;;;4.30;3.60;;;6.00;98.70;;;;;;5051683;28;20447;-72
2024/01/28 02:29:01;;;;;;;5.23;4.20;;;6.10;98.60;;;;;;5052293;28;20410;-73
2024/01/28 02:31:26;;;;;;;6.67;4.30;;;6.10;98.40;;;;;;5051379;28;20181;-72
2024/01/28 02:33:52;;;;;;;3.93;3.57;;;6.00;97.60;;;;;;5052119;28;20187;-72
2024/01/28 02:36:18;;;;;;;5.70;3.90;;;5.90;97.20;;;;;;5033838;28;20508;-72
2024/01/28 02:38:44;;;;;;;3.90;3.60;;;6.00;97.60;;;;;;5033346;28;20200;-72
2024/01/28 02:41:09;;;;;;;5.37;3.93;;;6.10;97.00;;;;;;5052410;28;20170;-72
2024/01/28 02:43:35;;;;;;;4.20;3.40;;;6.10;97.00;;;;;;5050737;28;20175;-72
2024/01/28 02:46:01;;;;;;;3.97;3.67;;;6.10;97.40;;;;;;5051662;28;20266;-72
2024/01/28 02:48:26;;;;;;;3.57;3.27;;;6.20;98.00;;;;;;5051409;28;20261;-72
2024/01/28 02:50:52;;;;;;;6.97;3.53;;;6.20;97.80;;;;;;5051884;28;20209;-71
2024/01/28 02:53:18;;;;;;;3.33;3.07;;;6.30;97.50;;;;;;5051580;28;20220;-72
2024/01/28 02:55:44;;;;;;;2.93;2.73;;;6.20;95.80;;;;;;5052171;28;20604;-72
2024/01/28 02:58:09;;;;;;;5.50;3.57;;;6.30;95.20;;;;;;5052028;28;20417;-72
2024/01/28 03:00:38;;;;;;;10.50;2.90;;;6.40;94.60;;;;;;5051038;28;20180;-71
2024/01/28 03:03:04;;;;;;;3.87;3.10;;;6.50;94.60;;;;;;5052104;28;20183;-71
2024/01/28 03:05:30;;;;;;;4.57;3.00;;;6.50;94.00;;;;;;5051229;28;20407;-71
2024/01/28 03:07:56;;;;;;;3.63;3.33;;;6.60;93.80;;;;;;5051103;28;20425;-71
2024/01/28 03:10:21;;;;;;;3.57;3.20;;;6.60;93.30;;;;;;5033145;28;20469;-71
2024/01/28 03:12:49;;;;;;;4.20;3.37;;;6.60;91.90;;;;;;5050463;28;20183;-72
2024/01/28 03:15:17;;;;;;;3.30;3.00;;;6.70;92.10;;;;;;5048780;28;20223;-63
2024/01/28 03:17:43;;;;;;;4.10;2.83;;;6.80;91.50;;;;;;5046860;28;20419;-71
2024/01/28 03:20:09;;;;;;;3.87;3.57;;;6.90;91.30;;;;;;5051417;28;20499;-71
2024/01/28 03:22:35;;;;;;;5.10;3.13;;;6.90;92.20;;;;;;5050983;28;20223;-72
2024/01/28 03:25:00;;;;;;;4.43;2.93;;;6.90;92.40;;;;;;5051911;28;20447;-71
2024/01/28 03:27:26;;;;;;;3.40;3.17;;;6.90;92.30;;;;;;5050428;28;20226;-71
2024/01/28 03:29:52;;;;;;;3.90;3.20;;;6.90;92.10;;;;;;5051797;28;20180;-72
2024/01/28 03:32:18;;;;;;;3.10;2.90;;;6.90;92.30;;;;;;5048363;28;20188;-62
2024/01/28 03:34:43;;;;;;;3.70;3.20;;;6.90;92.40;;;;;;5050778;28;20430;-71
2024/01/28 03:37:09;;;;;;;4.73;3.23;;;6.90;92.60;;;;;;5051627;28;20172;-72
2024/01/28 03:39:35;;;;;;;3.27;2.97;;;6.90;92.70;;;;;;5050491;28;20212;-71
2024/01/28 03:42:01;;;;;;;3.50;3.20;;;6.90;92.70;;;;;;5051590;28;20533;-71
2024/01/28 03:44:26;;;;;;;3.83;3.20;;;6.90;92.60;;;;;;5051007;28;20207;-71
2024/01/28 03:46:54;;;;;;;5.97;3.50;;;6.90;92.50;;;;;;5033999;28;20199;-72
2024/01/28 03:49:20;;;;;;;4.67;3.20;;;6.90;93.00;;;;;;5050772;28;20180;-70
2024/01/28 03:51:46;;;;;;;4.33;3.20;;;6.80;93.70;;;;;;5035461;28;20594;-72
2024/01/28 03:54:12;;;;;;;8.97;3.17;;;6.80;93.80;;;;;;5055160;28;20169;-72
2024/01/28 03:56:40;;;;;;;3.53;3.23;;;6.70;92.90;;;;;;5055024;28;20458;-72
2024/01/28 03:59:06;;;;;;;3.10;2.77;;;6.70;92.90;;;;;;5055278;28;20199;-72
2024/01/28 04:01:33;;;;;;;3.00;2.80;;;6.70;92.00;;;;;;5053201;28;20423;-71
2024/01/28 04:03:59;;;;;;;3.20;2.70;;;6.70;91.20;;;;;;5055304;28;20750;-72
2024/01/28 04:06:26;;;;;;;2.83;2.63;;;6.70;91.40;;;;;;5036685;28;20398;-72
2024/01/28 04:08:55;;;;;;;3.07;2.87;;;6.70;91.50;;;;;;5055143;28;20406;-72
2024/01/28 04:11:25;;;;;;;3.63;3.33;;;6.70;91.90;;;;;;5053854;28;20805;-66
2024/01/28 04:13:55;;;;;;;3.47;3.17;;;6.70;91.80;;;;;;5054324;28;20533;-72
2024/01/28 04:16:22;;;;;;;3.30;3.00;;;6.70;91.80;;;;;;5036489;28;20442;-66
2024/01/28 04:18:48;;;;;;;3.63;3.00;;;6.80;91.60;;;;;;5054801;28;20511;-72
2024/01/28 04:21:14;;;;;;;3.40;3.17;;;6.70;92.00;;;;;;5054712;28;20817;-72
2024/01/28 04:23:39;;;;;;;3.23;2.63;;;6.70;91.80;;;;;;5053886;28;20435;-72
2024/01/28 04:26:06;;;;;;;3.37;2.80;;;6.70;92.30;;;;;;5054148;28;20391;-72
2024/01/28 04:28:32;;;;;;;3.60;2.93;;;6.60;91.80;;;;;;5053627;28;20184;-71
2024/01/28 04:31:01;;;;;;;3.70;3.13;;;6.70;91.30;;;;;;5038016;28;20430;-72
2024/01/28 04:33:27;;;;;;;3.33;3.03;;;6.70;91.10;;;;;;5035716;28;20230;-71
2024/01/28 04:35:52;;;;;;;4.20;3.80;;;6.70;90.50;;;;;;5054443;28;20415;-72
2024/01/28 04:38:18;;;;;;;2.90;2.70;;;6.80;91.00;;;;;;5054464;28;20648;-64
2024/01/28 04:40:44;;;;;;;4.20;3.80;;;6.80;91.60;;;;;;5053670;28;20260;-73
2024/01/28 04:43:10;;;;;;;3.13;2.83;;;6.80;91.50;;;;;;5054377;28;20173;-73
2024/01/28 04:45:36;;;;;;;2.83;2.63;;;6.70;91.40;;;;;;5053675;28;20755;-72
2024/01/28 04:48:01;;;;;;;4.73;3.00;;;6.70;91.50;;;;;;5036818;28;20164;-72
2024/01/28 04:50:27;;;;;;;3.73;2.63;;;6.60;91.50;;;;;;5053260;28;20939;-72
2024/01/28 04:52:53;;;;;;;3.20;2.90;;;6.60;91.50;;;;;;5054446;28;20419;-72
2024/01/28 04:55:19;;;;;;;3.70;3.03;;;6.60;92.00;;;;;;5054149;28;20426;-73
2024/01/28 04:57:44;;;;;;;5.00;4.60;;;6.50;92.00;;;;;;5053227;28;20176;-72
2024/01/28 05:00:11;;;;;;;5.23;4.73;;;6.50;92.20;;;;;;5053701;28;20219;-68
2024/01/28 05:02:37;;;;;;;5.13;4.63;;;6.40;92.40;;;;;;5052828;28;20184;-72
2024/01/28 05:05:04;;;;;;;4.87;3.90;;;6.40;92.90;;;;;;5035975;28;20410;-72
2024/01/28 05:07:29;;;;;;;7.13;4.73;;;6.30;93.00;;;;;;5052966;28;20414;-72
2024/01/28 05:09:56;;;;;;;6.07;5.47;;;6.30;93.30;;;;;;5054116;28;20473;-72
2024/01/28 05:12:21;;;;;;;7.60;5.60;;;6.20;93.70;;;;;;5053068;28;20182;-65
2024/01/28 05:14:47;;;;;;;9.13;5.70;;;6.10;94.00;;;;;;5053070;28;20454;-71
2024/01/28 05:17:13;;;;;;;7.83;6.10;;;6.00;94.20;;;;;;5053614;28;20229;-71
2024/01/28 05:19:39;;;;;;;8.30;6.90;;;5.90;94.40;;;;;;5052436;28;20532;-72
2024/01/28 05:22:04;;;;;;;7.53;6.73;;;5.80;94.90;;;;;;5053714;28;20269;-73
2024/01/28 05:24:31;;;;;;;8.53;6.30;;;5.70;95.20;;;;;;5052741;28;20178;-71
2024/01/28 05:26:56;;;;;;;10.05;7.38;;;5.60;95.40;;;;;;5053394;28;20215;-72
2024/01/28 05:29:22;;;;;;;8.73;7.90;;;5.50;96.00;;;;;;5053098;28;20256;-63
2024/01/28 05:31:48;;;;;;;9.53;8.53;;;5.50;96.60;;;;;;5052156;28;20425;-72
2024/01/28 05:34:14;;;;;;;10.70;8.10;;;5.40;97.90;;;;;;5035563;28;20178;-72
2024/01/28 05:36:41;;;;;;;11.23;8.43;;;5.30;98.80;;;;;;5052390;28;20368;-71
2024/01/28 05:39:07;;;;;;;9.73;7.93;;;5.30;99.30;;;;;;5035706;28;20500;-71
2024/01/28 05:41:33;;;;;;;9.10;7.47;;;5.30;99.50;;;;;;5052277;28;20264;-71
2024/01/28 05:43:58;;;;;;;8.93;8.13;;;5.30;99.60;;;;;;5053499;28;20233;-71
2024/01/28 05:46:24;;;;;;;9.73;8.27;;;5.30;99.50;;;;;;5052830;28;20421;-62
2024/01/28 05:48:50;;;;;;;9.20;7.40;;;5.20;99.40;;;;;;5052674;28;20271;-72
2024/01/28 05:51:16;;;;;;;8.80;7.87;;;5.20;99.10;;;;;;5053079;28;20412;-72
2024/01/28 05:53:42;;;;;;;10.03;8.43;;;5.10;98.80;;;;;;5053167;28;20401;-73
2024/01/28 05:56:08;;;;;;;11.07;7.87;;;5.10;98.70;;;;;;5054026;28;20868;-72
2024/01/28 05:58:34;;;;;;;9.57;8.60;;;5.00;99.10;;;;;;5053132;28;20665;-73
2024/01/28 06:01:05;;;;;;;8.30;7.57;;;5.00;99.50;;;;;;5052866;28;20212;-72
2024/01/28 06:03:32;;;;;;;10.43;7.90;;;5.00;99.90;;;;;;5053295;28;20165;-72
2024/01/28 06:05:57;;;;;;;8.65;7.75;;;5.00;99.90;;;;;;5034922;28;20166;-72
2024/01/28 06:08:23;;;;;;;8.53;7.40;;;5.00;99.90;;;;;;5052896;28;20170;-72
2024/01/28 06:10:49;;;;;;;9.80;7.70;;;5.00;99.90;;;;;;5052089;28;20524;-72
2024/01/28 06:13:14;;;;;;;10.40;7.83;;;4.90;99.90;;;;;;5052670;28;20166;-72
2024/01/28 06:15:40;;;;;;;8.73;6.97;;;4.90;99.90;;;;;;5051205;28;20236;-72
2024/01/28 06:18:06;;;;;;;9.97;7.20;;;4.90;99.90;;;;;;5052535;28;20166;-72
2024/01/28 06:20:35;;;;;;;11.07;6.70;;;4.90;99.90;;;;;;5034169;28;20182;-72
2024/01/28 06:23:01;;;;;;;7.63;6.72;;;4.80;99.90;;;;;;5052368;28;20166;-72
2024/01/28 06:25:27;;;;;;;10.05;7.05;;;4.80;99.90;;;;;;5052157;28;20162;-62
2024/01/28 06:27:52;;;;;;;9.30;6.93;;;4.80;99.90;;;;;;5052088;28;20513;-72
2024/01/28 06:30:18;;;;;;;9.67;6.57;;;4.80;99.90;;;;;;5051215;28;20193;-72
2024/01/28 06:32:44;;;;;;;7.70;6.93;;;4.90;99.90;;;;;;5048776;28;20663;-72
2024/01/28 06:35:10;;;;;;;11.40;9.50;;;4.90;99.90;;;;;;5052569;28;20408;-72
2024/01/28 06:37:36;;;;;;;18.37;11.53;;;4.80;99.90;;;;;;5051609;28;20250;-72
2024/01/28 06:40:02;;;;;;;17.67;10.98;;;4.80;99.90;;;;;;5052062;28;20198;-71
2024/01/28 06:42:31;;;;;;;14.95;11.48;;;4.80;99.90;;;;;;5051672;28;20602;-64
2024/01/28 06:45:00;;;;;;;13.73;10.43;;;4.80;99.90;;;;;;5052446;28;20210;-72
2024/01/28 06:47:26;;;;;;;12.38;10.57;;;4.70;99.90;;;;;;5051796;28;20182;-63
2024/01/28 06:49:52;;;;;;;10.50;9.50;;;4.40;99.90;;;;;;5051697;28;20182;-72
2024/01/28 06:52:18;;;;;;;9.33;8.40;;;4.70;99.90;;;;;;5052264;28;20561;-71
2024/01/28 06:54:44;;;;;;;10.03;8.40;;;4.70;99.90;;;;;;5050258;28;20260;-72
2024/01/28 06:57:09;;;;;;;11.45;8.10;;;4.70;99.90;;;;;;5052133;28;20298;-72
2024/01/28 06:59:36;;;;;;;14.83;9.17;;;4.70;99.90;;;;;;5033493;28;20201;-72
2024/01/28 07:02:01;;;;;;;12.60;8.75;;;4.60;99.90;;;;;;5048990;28;20173;-72
2024/01/28 07:04:27;;;;;;;9.93;8.47;;;4.60;99.90;;;;;;5051668;28;20560;-62
2024/01/28 07:06:53;;;;;;;9.60;8.70;;;4.60;99.90;;;;;;5052346;28;20259;-72
2024/01/28 07:09:19;;;;;;;10.20;8.03;;;4.70;99.90;;;;;;5052061;28;20582;-72
2024/01/28 07:11:45;;;;;;;10.00;7.50;;;4.60;99.90;;;;;;5051110;28;20169;-72
2024/01/28 07:14:10;;;;;;;9.57;7.47;;;4.60;99.90;;;;;;5052035;28;20236;-72
2024/01/28 07:16:36;;;;;;;11.97;8.00;;;4.60;99.90;;;;;;5050858;28;20637;-72
2024/01/28 07:19:03;;;;;;;15.10;9.30;;;4.50;99.90;;;;;;5051729;28;20205;-71
2024/01/28 07:21:28;;;;;;;12.25;9.13;;;4.60;99.90;;;;;;5051415;28;20806;-64
2024/01/28 07:23:54;;;;;;;8.90;8.10;;;4.60;99.90;;;;;;5033350;28;20197;-73
2024/01/28 07:26:20;;;;;;;13.60;7.87;;;4.60;99.90;;;;;;5034806;28;20897;-73
2024/01/28 07:28:46;;;;;;;9.17;7.27;;;4.60;99.90;;;;;;5053970;28;20177;-73
2024/01/28 07:31:11;;;;;;;8.27;7.47;;;4.60;99.90;;;;;;5055523;28;20180;-73
2024/01/28 07:33:37;;;;;;;10.67;7.60;;;4.70;99.90;;;;;;5054487;28;20201;-71
2024/01/28 07:36:03;;;;;;;11.63;7.40;;;4.80;99.90;;;;;;5055798;28;20173;-72
2024/01/28 07:38:29;;;;;;;13.67;7.30;;;4.80;99.90;;;;;;5037913;28;20208;-67
2024/01/28 07:40:55;;;;;;;8.90;6.82;;;4.70;99.90;;;;;;5055282;28;20198;-72
2024/01/28 07:43:23;;;;;;;11.07;6.65;;;4.70;99.90;;;;;;5055179;28;20174;-72
2024/01/28 07:45:50;;;;;;;11.23;6.97;;;4.70;99.90;;;;;;5054601;28;20191;-71
2024/01/28 07:48:16;;;;;;;9.70;7.40;;;4.80;99.90;;;;;;5055222;28;20228;-71
2024/01/28 07:50:43;;;;;;;13.30;7.22;;;4.70;99.90;;;;;;5047332;28;20166;-66
2024/01/28 07:53:09;;;;;;;7.43;6.65;;;4.70;99.90;;;;;;5054738;28;20313;-67
2024/01/28 07:55:34;;;;;;;8.95;6.65;;;4.70;99.90;;;;;;5054506;28;20176;-64
2024/01/28 07:58:00;;;;;;;10.67;8.30;;;4.70;99.90;;;;;;5055483;28;20517;-66
2024/01/28 08:00:27;;;;;;;12.67;8.20;;;4.80;99.90;;;;;;5054243;28;20201;-66
2024/01/28 08:02:53;;;;;;;11.43;9.07;;;4.70;99.90;;;;;;5054739;28;20174;-66
2024/01/28 08:05:19;;;;;;;9.27;8.47;;;4.80;99.90;;;;;;5055423;28;20232;-66
2024/01/28 08:07:45;;;;;;;12.47;11.27;;;4.80;99.90;;;;;;5054224;28;20396;-66
2024/01/28 08:10:11;;;;;;;14.07;10.83;;;4.80;99.90;;;;;;5054999;28;20419;-66
2024/01/28 08:12:37;;;;;;;15.27;10.57;;;4.80;99.90;;;;;;5054227;28;20170;-69
2024/01/28 08:15:03;;;;;;;11.83;10.63;;;4.90;99.90;;;;;;5055069;28;20962;-70
2024/01/28 08:17:29;;;;;;;12.90;10.87;;;4.80;99.90;;;;;;5054205;28;20181;-61
2024/01/28 08:19:55;;;;;;;12.13;10.60;;;4.90;99.90;;;;;;5036046;28;20438;-62
2024/01/28 08:22:20;;;;;;;12.23;11.00;;;5.00;99.90;;;;;;5055429;28;20260;-61
2024/01/28 08:24:46;;;;;;;11.97;10.77;;;5.10;99.90;;;;;;5054324;28;20174;-61
2024/01/28 08:27:12;;;;;;;11.83;10.10;;;5.40;99.90;;;;;;5054566;28;20170;-61
2024/01/28 08:29:38;;;;;;;11.73;10.37;;;5.50;99.90;;;;;;5053894;28;20186;-65
2024/01/28 08:32:05;;;;;;;11.15;9.95;;;5.60;99.90;;;;;;5054870;28;20174;-61
2024/01/28 08:34:30;;;;;;;11.13;9.68;;;5.70;99.90;;;;;;5053722;28;20170;-61
2024/01/28 08:36:56;;;;;;;11.47;8.60;;;5.80;99.90;;;;;;5052840;28;20258;-61
2024/01/28 08:39:22;;;;;;;11.33;8.90;;;6.00;99.90;;;;;;5047537;28;20230;-61
2024/01/28 08:41:47;;;;;;;9.87;8.80;;;6.30;99.90;;;;;;5053111;28;20258;-61
2024/01/28 08:44:15;;;;;;;13.70;9.60;;;6.30;99.90;;;;;;5036898;28;20516;-61
2024/01/28 08:46:40;;;;;;;10.07;7.93;;;6.50;99.90;;;;;;5048065;28;20167;-61
2024/01/28 08:49:06;;;;;;;9.80;6.90;;;6.70;99.90;;;;;;5054851;28;20476;-61
2024/01/28 08:51:33;;;;;;;10.37;8.20;;;6.80;99.90;;;;;;5054841;28;20255;-61
2024/01/28 08:53:59;;;;;;;5.33;4.93;;;7.00;99.90;;;;;;5055082;28;20399;-61
2024/01/28 08:56:25;;;;;;;7.20;6.00;;;7.20;99.90;;;;;;5053926;28;20438;-61
2024/01/28 08:58:51;;;;;;;5.90;5.20;;;7.50;98.60;;;;;;5051468;28;20454;-61
2024/01/28 09:01:17;;;;;;;6.70;5.70;;;7.70;98.60;;;;;;5051498;28;20181;-61
2024/01/28 09:03:42;;;;;;;5.90;5.03;;;7.90;98.60;;;;;;5035369;28;20416;-61
2024/01/28 09:06:08;;;;;;;5.70;4.97;;;8.10;97.40;;;;;;5036543;28;20892;-64
2024/01/28 09:08:34;;;;;;;7.57;4.57;;;8.60;95.70;;;;;;5050771;28;20520;-60
2024/01/28 09:11:01;;;;;;;6.63;4.73;;;9.50;94.60;;;;;;5050882;28;20180;-61
2024/01/28 09:13:26;;;;;;;5.43;4.93;;;10.60;92.20;;;;;;5053033;28;20416;-62
2024/01/28 09:15:53;;;;;;;4.40;4.00;;;11.30;90.00;;;;;;5051612;28;20831;-62
2024/01/28 09:18:19;;;;;;;4.97;4.47;;;11.80;84.50;;;;;;5054076;28;20205;-62
2024/01/28 09:20:45;;;;;;;5.30;4.80;;;12.50;80.20;;;;;;5052627;28;20886;-61
2024/01/28 09:23:11;;;;;;;4.53;4.20;;;13.70;72.60;;;;;;5058756;28;20423;-61
2024/01/28 09:25:36;;;;;;;4.70;4.40;;;14.90;67.20;;;;;;5053641;28;20687;-59
2024/01/28 09:28:03;;;;;;;3.93;3.60;;;15.70;61.80;;;;;;5036133;28;20189;-60
2024/01/28 09:30:29;;;;;;;4.57;4.17;;;16.50;58.10;;;;;;5053098;28;20177;-61
2024/01/28 09:32:55;;;;;;;4.43;4.10;;;17.40;54.70;;;;;;5052755;28;20408;-60
2024/01/28 09:35:20;;;;;;;4.30;3.93;;;18.10;52.70;;;;;;5052797;28;20424;-60
2024/01/28 09:37:46;;;;;;;3.63;3.33;;;19.40;51.50;;;;;;5031935;28;20954;-60
2024/01/28 09:40:13;;;;;;;3.50;3.30;;;20.10;49.50;;;;;;5053637;28;20200;-60
2024/01/28 09:42:44;;;;;;;5.30;4.90;;;20.30;48.00;;;;;;5053104;28;20235;-60
2024/01/28 09:45:10;;;;;;;4.10;3.80;;;20.80;45.50;;;;;;5053648;28;20401;-61
2024/01/28 09:47:37;;;;;;;4.70;4.40;;;21.20;46.00;;;;;;5053732;28;20499;-60
2024/01/28 09:50:08;;;;;;;4.63;4.33;;;21.10;43.40;;;;;;5045434;28;20499;-60
2024/01/28 09:52:34;;;;;;;3.37;3.17;;;21.00;44.20;;;;;;5064785;28;20412;-60
2024/01/28 09:55:00;;;;;;;3.87;3.57;;;20.70;42.80;;;;;;5063929;28;20447;-60
2024/01/28 09:57:27;;;;;;;3.73;3.53;;;20.50;42.10;;;;;;5063287;28;20447;-60
2024/01/28 09:59:54;;;;;;;3.60;3.40;;;20.50;42.50;;;;;;5056760;28;20763;-60
2024/01/28 10:02:22;;;;;;;3.87;3.57;;;19.90;41.20;;;;;;5038836;28;20415;-60
2024/01/28 10:04:48;;;;;;;3.90;3.43;;;19.50;42.40;;;;;;5060996;28;20440;-60
2024/01/28 10:07:15;;;;;;;3.47;3.27;;;19.00;41.60;;;;;;5062129;28;20469;-60
2024/01/28 10:09:41;;;;;;;3.80;3.50;;;18.40;43.50;;;;;;5063644;28;20400;-59
2024/01/28 10:12:09;;;;;;;3.20;3.00;;;18.10;44.00;;;;;;5062428;28;20960;-59
2024/01/28 10:14:35;;;;;;;3.40;3.20;;;17.70;46.00;;;;;;5038166;28;20249;-59
2024/01/28 10:17:01;;;;;;;3.90;3.53;;;17.10;44.70;;;;;;5021697;28;21177;-59
2024/01/28 10:19:27;;;;;;;4.00;3.53;;;17.00;45.10;;;;;;5018552;28;20247;-60
2024/01/28 10:21:53;;;;;;;4.27;3.97;;;17.30;55.40;;;;;;5020335;28;20186;-60
2024/01/28 10:24:18;;;;;;;3.40;3.10;;;17.60;51.00;;;;;;5012913;28;20256;-60
2024/01/28 10:26:45;;;;;;;4.60;4.30;;;17.60;48.40;;;;;;5012225;28;20167;-60
2024/01/28 10:29:12;;;;;;;180.13;105.50;;;17.70;53.30;;;;;;5011721;28;20754;-61
2024/01/28 10:31:38;;;;;;;33.80;25.70;;;18.00;52.10;;;;;;5012891;28;20410;-61
2024/01/28 10:34:04;;;;;;;7.80;7.00;;;17.90;53.00;;;;;;5012255;28;20780;-61
2024/01/28 10:36:34;;;;;;;6.33;5.83;;;18.10;52.10;;;;;;5012834;28;20725;-61
2024/01/28 10:39:04;;;;;;;4.77;4.23;;;18.30;55.30;;;;;;5012335;28;20520;-61
2024/01/28 10:41:32;;;;;;;6.17;5.67;;;18.40;51.50;;;;;;5013021;28;20410;-59
2024/01/28 10:44:02;;;;;;;7.17;6.57;;;18.50;52.80;;;;;;5008773;28;20437;-62
2024/01/28 10:46:52;;;;;;;5.37;5.00;;;18.70;53.50;;;;;;5012127;28;20422;-61
2024/01/28 10:49:26;;;;;;;4.50;4.20;;;18.80;50.00;;;;;;5012165;28;20410;-61
2024/01/28 10:51:55;;;;;;;4.43;4.13;;;18.90;49.20;;;;;;5011646;28;20420;-59
2024/01/28 10:54:22;;;;;;;4.70;4.30;;;19.10;50.40;;;;;;5012464;28;20813;-61
2024/01/28 10:56:50;;;;;;;4.43;4.10;;;19.20;51.40;;;;;;5011562;28;20422;-60
2024/01/28 10:59:16;;;;;;;4.53;4.23;;;19.40;51.80;;;;;;5012063;28;20485;-61
2024/01/28 11:01:43;;;;;;;4.10;3.80;;;19.50;49.10;;;;;;5012021;28;20414;-61
2024/01/28 11:04:09;;;;;;;4.67;4.27;;;19.50;46.50;;;;;;5011877;28;20487;-61
2024/01/28 11:06:35;;;;;;;4.00;3.60;;;19.70;48.20;;;;;;5011812;28;20414;-62
2024/01/28 11:09:03;;;;;;;4.20;3.90;;;19.80;46.50;;;;;;5011440;28;20425;-61
2024/01/28 11:11:32;;;;;;;4.17;3.80;;;19.90;47.80;;;;;;5012168;28;20921;-61
2024/01/28 11:13:58;;;;;;;5.30;4.40;;;20.10;47.90;;;;;;5018461;28;20432;-60
2024/01/28 11:16:28;;;;;;;5.50;5.10;;;20.10;44.60;;;;;;5050551;28;20476;-61
2024/01/28 11:19:06;;;;;;;6.37;5.87;;;20.20;45.00;;;;;;5033404;28;20193;-61
2024/01/28 11:21:33;;;;;;;5.07;4.77;;;20.30;47.50;;;;;;5051677;28;20801;-61
2024/01/28 11:24:04;;;;;;;4.63;4.23;;;20.30;46.70;;;;;;5016591;28;20431;-62
2024/01/28 11:26:36;;;;;;;4.20;4.00;;;20.30;46.50;;;;;;5052084;28;20393;-62
2024/01/28 11:29:05;;;;;;;3.70;3.50;;;20.30;44.20;;;;;;5051137;28;20400;-60
2024/01/28 11:31:33;;;;;;;5.43;4.90;;;20.30;45.30;;;;;;5051469;28;20515;-60
2024/01/28 11:34:19;;;;;;;5.40;5.00;;;20.40;47.40;;;;;;5051099;28;20546;-61
2024/01/28 11:36:53;;;;;;;4.33;4.07;;;20.30;47.30;;;;;;5050082;28;20416;-60
2024/01/28 11:39:46;;;;;;;145.97;105.57;;;20.40;44.30;;;;;;5051425;28;20555;-61
2024/01/28 11:42:13;;;;;;;18.47;16.43;;;20.10;42.50;;;;;;5033020;28;20420;-59
2024/01/28 11:44:40;;;;;;;9.60;8.60;;;20.10;42.70;;;;;;5050660;28;20419;-60
2024/01/28 11:47:07;;;;;;;3.87;3.67;;;20.30;44.60;;;;;;5047595;28;20428;-60
2024/01/28 11:49:33;;;;;;;4.10;3.80;;;20.40;42.70;;;;;;5044952;28;20420;-60
2024/01/28 11:51:59;;;;;;;5.03;4.63;;;20.40;43.60;;;;;;5048742;28;20437;-60
2024/01/28 11:54:25;;;;;;;4.67;4.20;;;20.50;43.50;;;;;;5045679;28;20416;-60
2024/01/28 11:56:51;;;;;;;6.50;5.93;;;20.50;42.00;;;;;;5044763;28;20174;-60
2024/01/28 11:59:16;;;;;;;3.50;3.40;;;20.60;45.70;;;;;;5045358;28;20206;-60
2024/01/28 12:01:42;;;;;;;4.10;3.90;;;20.50;40.80;;;;;;5049429;28;20272;-60
2024/01/28 12:04:09;;;;;;;4.33;4.13;;;20.50;41.00;;;;;;5044657;28;20381;-60
2024/01/28 12:06:36;;;;;;;3.97;3.70;;;20.40;41.60;;;;;;5053288;28;20170;-60
2024/01/28 12:09:02;;;;;;;4.40;4.07;;;20.60;43.20;;;;;;5049288;28;20426;-60
2024/01/28 12:11:28;;;;;;;62.03;45.40;;;20.50;42.80;;;;;;5051550;28;20423;-60
2024/01/28 12:13:55;;;;;;;23.23;20.70;;;20.70;48.50;;;;;;5036504;28;20539;-60
2024/01/28 12:16:25;;;;;;;6.07;5.63;;;20.80;48.00;;;;;;5054678;28;20408;-60
2024/01/28 12:18:55;;;;;;;3.70;3.50;;;20.90;42.50;;;;;;5054294;28;20919;-60
2024/01/28 12:21:25;;;;;;;4.10;3.90;;;20.90;42.90;;;;;;5055406;28;20432;-60
2024/01/28 12:24:02;;;;;;;4.70;4.30;;;21.00;41.60;;;;;;5054797;28;20413;-60
2024/01/28 12:26:34;;;;;;;4.63;4.30;;;20.90;44.40;;;;;;5055306;28;20384;-60
2024/01/28 12:29:02;;;;;;;5.50;5.10;;;20.90;42.00;;;;;;5036746;28;20412;-60
2024/01/28 12:31:28;;;;;;;4.30;3.90;;;20.90;44.00;;;;;;5054814;28;20409;-61
2024/01/28 12:33:54;;;;;;;4.67;4.37;;;20.80;44.50;;;;;;5053956;28;20420;-60
2024/01/28 12:36:19;;;;;;;4.00;3.80;;;20.80;45.40;;;;;;5051747;28;20927;-59
2024/01/28 12:38:45;;;;;;;3.73;3.53;;;20.80;43.40;;;;;;5051958;28;21841;-61
2024/01/28 12:41:11;;;;;;;3.47;3.37;;;20.90;42.00;;;;;;5054556;28;20181;-61
2024/01/28 12:43:40;;;;;;;3.97;3.77;;;20.60;39.80;;;;;;5054629;28;20412;-61
2024/01/28 12:46:06;;;;;;;3.77;3.23;;;20.00;40.90;;;;;;5053759;28;20971;-61
2024/01/28 12:48:32;;;;;;;4.63;4.23;;;20.00;40.60;;;;;;5054194;28;20485;-61